createdAt,value
2018-12-05T00:00:52.958Z,69.70
2018-12-05T00:03:23.683Z,69.40
2018-12-05T00:05:54.602Z,69.00
2018-12-05T00:08:25.592Z,68.70
2018-12-05T00:10:56.468Z,68.40
2018-12-05T00:13:28.042Z,68.10
2018-12-05T00:15:58.828Z,68.10
2018-12-05T00:18:29.533Z,68.20
2018-12-05T00:21:00.422Z,68.50
2018-12-05T00:23:31.220Z,68.20
2018-12-05T00:26:02.147Z,68.10
2018-12-05T00:28:32.937Z,68.00
2018-12-05T00:31:03.727Z,67.80
2018-12-05T00:33:34.537Z,67.90
2018-12-05T00:36:05.397Z,67.90
2018-12-05T00:38:36.092Z,68.30
2018-12-05T00:41:07.010Z,68.50
2018-12-05T00:43:37.930Z,68.90
2018-12-05T00:46:08.853Z,68.60
2018-12-05T00:48:39.642Z,68.90
2018-12-05T00:51:10.442Z,69.60
2018-12-05T00:53:41.345Z,70.60
2018-12-05T00:56:12.252Z,70.60
2018-12-05T00:58:43.122Z,70.80
2018-12-05T01:01:14.007Z,70.80
2018-12-05T01:03:44.862Z,70.60
2018-12-05T01:06:15.762Z,71.00
2018-12-05T01:08:46.569Z,71.00
2018-12-05T01:11:17.429Z,70.10
2018-12-05T01:13:49.141Z,69.60
2018-12-05T01:16:20.067Z,69.60
2018-12-05T01:18:50.927Z,69.50
2018-12-05T01:21:21.773Z,70.30
2018-12-05T01:23:52.482Z,70.40
2018-12-05T01:26:23.267Z,70.30
2018-12-05T01:28:54.173Z,70.00
2018-12-05T01:31:25.225Z,69.30
2018-12-05T01:33:56.046Z,69.20
2018-12-05T01:36:26.998Z,69.20
2018-12-05T01:38:57.887Z,69.20
2018-12-05T01:41:28.802Z,69.20
2018-12-05T01:44:00.097Z,69.30
2018-12-05T01:46:30.887Z,69.10
2018-12-05T01:49:01.752Z,68.90
2018-12-05T01:51:32.627Z,68.60
2018-12-05T01:54:03.427Z,68.10
2018-12-05T01:56:34.387Z,68.00
2018-12-05T01:59:05.598Z,67.80
2018-12-05T02:01:42.817Z,67.80
2018-12-05T02:04:13.612Z,67.70
2018-12-05T02:06:44.342Z,68.40
2018-12-05T02:09:15.312Z,67.90
2018-12-05T02:11:45.987Z,67.90
2018-12-05T02:14:17.287Z,67.50
2018-12-05T02:16:48.063Z,67.70
2018-12-05T02:19:18.983Z,68.00
2018-12-05T02:21:50.297Z,68.40
2018-12-05T02:24:20.932Z,68.90
2018-12-05T02:26:51.842Z,70.00
2018-12-05T02:29:24.627Z,69.80
2018-12-05T02:31:55.368Z,70.30
2018-12-05T02:34:26.126Z,69.80
2018-12-05T02:36:56.887Z,69.40
2018-12-05T02:39:27.697Z,69.20
2018-12-05T02:41:58.627Z,68.60
2018-12-05T02:44:29.551Z,68.20
2018-12-05T02:47:00.402Z,68.00
2018-12-05T02:49:31.439Z,68.20
2018-12-05T02:52:02.264Z,68.40
2018-12-05T02:54:32.932Z,68.30
2018-12-05T02:57:03.621Z,69.10
2018-12-05T02:59:34.392Z,68.70
2018-12-05T03:02:05.503Z,68.90
2018-12-05T03:04:38.597Z,68.80
2018-12-05T03:07:09.613Z,68.70
2018-12-05T03:09:40.448Z,69.00
2018-12-05T03:12:11.312Z,69.50
2018-12-05T03:14:42.807Z,69.20
2018-12-05T03:17:13.627Z,69.70
2018-12-05T03:19:44.457Z,70.50
2018-12-05T03:22:15.280Z,70.80
2018-12-05T03:24:46.097Z,71.00
2018-12-05T03:27:16.891Z,71.10
2018-12-05T03:29:47.654Z,71.30
2018-12-05T03:32:20.562Z,71.80
2018-12-05T03:34:51.306Z,71.70
2018-12-05T03:37:22.213Z,71.70
2018-12-05T03:39:52.931Z,71.90
2018-12-05T03:42:23.732Z,71.40
2018-12-05T03:44:54.646Z,70.90
2018-12-05T03:47:26.558Z,71.00
2018-12-05T03:50:04.031Z,70.90
2018-12-05T03:52:34.706Z,71.00
2018-12-05T03:55:05.773Z,70.90
2018-12-05T03:57:36.717Z,70.60
2018-12-05T04:00:07.703Z,70.90
2018-12-05T04:02:38.487Z,70.70
2018-12-05T04:05:09.175Z,70.70
2018-12-05T04:07:39.967Z,70.00
2018-12-05T04:10:10.777Z,69.70
2018-12-05T04:12:41.662Z,69.30
2018-12-05T04:15:19.336Z,69.40
2018-12-05T04:17:50.235Z,70.10
2018-12-05T04:20:21.152Z,70.00
2018-12-05T04:22:52.007Z,70.10
2018-12-05T04:25:22.848Z,70.20
2018-12-05T04:27:53.847Z,70.40
2018-12-05T04:30:24.637Z,70.20
2018-12-05T04:32:57.880Z,70.40
2018-12-05T04:35:28.581Z,71.30
2018-12-05T04:37:59.368Z,71.40
2018-12-05T04:40:30.129Z,70.80
2018-12-05T04:43:01.047Z,71.10
2018-12-05T04:45:31.948Z,71.00
2018-12-05T04:48:02.903Z,70.30
2018-12-05T04:50:34.444Z,69.80
2018-12-05T04:53:05.503Z,69.40
2018-12-05T04:55:36.204Z,69.50
2018-12-05T04:58:07.169Z,69.10
2018-12-05T05:00:38.158Z,69.50
2018-12-05T05:03:09.168Z,70.10
2018-12-05T05:05:40.048Z,69.60
2018-12-05T05:08:11.130Z,70.00
2018-12-05T05:10:41.909Z,69.40
2018-12-05T05:13:12.829Z,69.00
2018-12-05T05:15:44.082Z,68.70
2018-12-05T05:18:14.923Z,68.90
2018-12-05T05:20:45.853Z,69.60
2018-12-05T05:23:16.845Z,68.60
2018-12-05T05:25:47.738Z,68.70
2018-12-05T05:28:18.632Z,68.60
2018-12-05T05:30:49.567Z,69.40
2018-12-05T05:33:20.593Z,69.70
2018-12-05T05:35:51.558Z,70.30
2018-12-05T05:38:22.528Z,70.60
2018-12-05T05:40:53.333Z,70.60
2018-12-05T05:43:24.269Z,70.60
2018-12-05T05:45:55.292Z,71.30
2018-12-05T05:48:26.136Z,71.40
2018-12-05T05:50:56.992Z,72.00
2018-12-05T05:53:27.913Z,71.80
2018-12-05T05:55:58.705Z,71.50
2018-12-05T05:58:29.633Z,71.00
2018-12-05T06:01:00.428Z,71.40
2018-12-05T06:03:37.583Z,71.10
2018-12-05T06:06:08.484Z,70.20
2018-12-05T06:08:39.383Z,69.60
2018-12-05T06:11:10.219Z,69.40
2018-12-05T06:13:41.153Z,69.10
2018-12-05T06:16:12.562Z,68.80
2018-12-05T06:18:43.363Z,68.30
2018-12-05T06:21:14.068Z,67.80
2018-12-05T06:23:44.863Z,67.10
2018-12-05T06:26:15.548Z,66.80
2018-12-05T06:28:46.558Z,67.00
2018-12-05T06:31:17.368Z,66.90
2018-12-05T06:33:48.138Z,66.80
2018-12-05T06:36:18.913Z,65.90
2018-12-05T06:38:49.748Z,65.70
2018-12-05T06:41:20.492Z,65.70
2018-12-05T06:43:51.473Z,65.30
2018-12-05T06:46:22.337Z,64.90
2018-12-05T06:48:53.416Z,65.30
2018-12-05T06:51:24.299Z,65.50
2018-12-05T06:53:55.368Z,65.00
2018-12-05T06:56:26.221Z,65.70
2018-12-05T06:58:57.129Z,64.70
2018-12-05T07:01:28.003Z,64.00
2018-12-05T07:03:59.186Z,64.70
2018-12-05T07:06:30.149Z,64.60
2018-12-05T07:09:01.113Z,65.60
2018-12-05T07:11:32.029Z,65.00
2018-12-05T07:14:03.098Z,65.80
2018-12-05T07:16:34.398Z,65.40
2018-12-05T07:19:05.718Z,64.60
2018-12-05T07:21:36.576Z,63.90
2018-12-05T07:24:09.019Z,63.10
2018-12-05T07:26:41.067Z,62.70
2018-12-05T07:29:12.013Z,63.90
2018-12-05T07:31:42.788Z,64.40
2018-12-05T07:34:13.688Z,66.20
2018-12-05T07:36:44.593Z,66.40
2018-12-05T07:39:15.738Z,66.50
2018-12-05T07:41:46.584Z,65.90
2018-12-05T07:44:17.714Z,64.40
2018-12-05T07:46:48.768Z,64.20
2018-12-05T07:49:19.838Z,63.90
2018-12-05T07:51:50.893Z,64.10
2018-12-05T07:54:21.812Z,63.90
2018-12-05T07:56:59.073Z,64.70
2018-12-05T07:59:30.414Z,63.80
2018-12-05T08:02:01.308Z,63.50
2018-12-05T08:04:32.345Z,63.30
2018-12-05T08:07:03.303Z,65.10
2018-12-05T08:09:34.588Z,62.90
2018-12-05T08:12:05.497Z,64.10
2018-12-05T08:14:37.427Z,66.10
2018-12-05T08:17:08.743Z,65.50
2018-12-05T08:19:41.125Z,65.50
2018-12-05T08:22:11.933Z,64.70
2018-12-05T08:24:43.367Z,65.80
2018-12-05T08:27:14.278Z,65.40
2018-12-05T08:29:45.357Z,66.00
2018-12-05T08:32:16.282Z,66.00
2018-12-05T08:34:47.552Z,65.80
2018-12-05T08:37:18.627Z,66.40
2018-12-05T08:39:49.832Z,65.40
2018-12-05T08:42:20.782Z,66.20
2018-12-05T08:44:52.107Z,66.00
2018-12-05T08:47:23.752Z,65.80
2018-12-05T08:49:54.841Z,67.00
2018-12-05T08:52:25.917Z,67.10
2018-12-05T08:54:57.127Z,66.70
2018-12-05T08:57:28.328Z,64.60
2018-12-05T08:59:59.399Z,64.60
2018-12-05T09:02:30.522Z,65.40
2018-12-05T09:05:01.592Z,65.70
2018-12-05T09:07:33.582Z,65.80
2018-12-05T09:10:06.472Z,65.20
2018-12-05T09:12:37.674Z,64.90
2018-12-05T09:15:09.302Z,65.90
2018-12-05T09:17:40.927Z,66.40
2018-12-05T09:20:12.072Z,67.20
2018-12-05T09:22:44.478Z,66.50
2018-12-05T09:25:15.590Z,66.50
2018-12-05T09:27:46.892Z,67.10
2018-12-05T09:30:17.917Z,68.90
2018-12-05T09:32:48.836Z,68.10
2018-12-05T09:35:20.082Z,66.60
2018-12-05T09:37:51.462Z,65.50
2018-12-05T09:40:22.604Z,65.30
2018-12-05T09:42:53.982Z,65.70
2018-12-05T09:45:25.262Z,66.30
2018-12-05T09:47:57.805Z,66.40
2018-12-05T09:50:29.005Z,66.10
2018-12-05T09:52:59.912Z,66.30
2018-12-05T09:55:30.882Z,65.80
2018-12-05T09:58:01.932Z,66.00
2018-12-05T10:00:33.082Z,66.80
2018-12-05T10:03:04.112Z,65.50
2018-12-05T10:05:35.242Z,66.80
2018-12-05T10:08:06.646Z,65.40
2018-12-05T10:10:37.547Z,66.10
2018-12-05T10:13:08.697Z,64.70
2018-12-05T10:15:39.803Z,64.20
2018-12-05T10:18:11.492Z,63.50
2018-12-05T10:20:42.498Z,63.60
2018-12-05T10:23:13.558Z,63.20
2018-12-05T10:25:44.612Z,63.10
2018-12-05T10:28:15.553Z,62.80
2018-12-05T10:30:46.591Z,63.40
2018-12-05T10:33:17.768Z,62.60
2018-12-05T10:35:49.008Z,62.30
2018-12-05T10:38:20.121Z,63.10
2018-12-05T10:40:51.400Z,61.70
2018-12-05T10:43:22.446Z,62.30
2018-12-05T10:45:53.499Z,60.80
2018-12-05T10:48:24.886Z,60.30
2018-12-05T10:50:55.943Z,59.30
2018-12-05T10:53:27.096Z,59.80
2018-12-05T10:55:58.171Z,59.90
2018-12-05T10:58:29.291Z,59.80
2018-12-05T11:01:05.006Z,59.80
2018-12-05T11:03:36.886Z,60.10
2018-12-05T11:06:12.926Z,60.50
2018-12-05T11:08:48.721Z,61.20
2018-12-05T11:11:24.886Z,59.90
2018-12-05T11:14:00.701Z,58.90
2018-12-05T11:16:36.755Z,59.70
2018-12-05T11:19:13.252Z,60.60
2018-12-05T11:21:49.827Z,60.30
2018-12-05T11:24:26.171Z,59.20
2018-12-05T11:26:59.611Z,59.00
2018-12-05T11:29:30.755Z,58.90
2018-12-05T11:32:01.791Z,58.50
2018-12-05T11:34:33.136Z,58.90
2018-12-05T11:37:04.480Z,57.80
2018-12-05T11:39:35.811Z,56.70
2018-12-05T11:42:06.896Z,55.90
2018-12-05T11:44:38.156Z,55.80
2018-12-05T11:47:09.703Z,55.90
2018-12-05T11:49:41.061Z,56.80
2018-12-05T11:52:12.086Z,56.50
2018-12-05T11:54:43.492Z,57.10
2018-12-05T11:57:14.741Z,57.30
2018-12-05T11:59:45.896Z,58.70
2018-12-05T12:02:22.344Z,58.10
2018-12-05T12:04:50.252Z,57.90
2018-12-05T12:07:21.277Z,57.40
2018-12-05T12:09:52.305Z,57.10
2018-12-05T12:13:32.182Z,57.40
2018-12-05T12:16:03.516Z,57.10
2018-12-05T12:18:34.806Z,56.20
2018-12-05T12:21:06.702Z,56.70
2018-12-05T12:23:37.886Z,57.10
2018-12-05T12:26:09.191Z,57.50
2018-12-05T12:28:40.531Z,58.10
2018-12-05T12:31:11.756Z,56.80
2018-12-05T12:33:42.942Z,57.30
2018-12-05T12:36:14.061Z,56.10
2018-12-05T12:38:45.086Z,55.30
2018-12-05T12:41:16.015Z,55.90
2018-12-05T12:43:47.060Z,55.90
2018-12-05T12:46:18.171Z,55.80
2018-12-05T12:48:49.317Z,55.90
2018-12-05T12:51:20.486Z,56.00
2018-12-05T12:53:51.905Z,56.10
2018-12-05T12:56:22.865Z,56.30
2018-12-05T12:58:53.951Z,55.40
2018-12-05T13:01:24.941Z,54.90
2018-12-05T13:03:57.481Z,56.60
2018-12-05T13:06:28.528Z,55.90
2018-12-05T13:08:59.736Z,55.80
2018-12-05T13:11:31.086Z,55.60
2018-12-05T13:14:02.575Z,55.60
2018-12-05T13:16:33.526Z,55.30
2018-12-05T13:19:04.781Z,55.90
2018-12-05T13:21:36.092Z,56.00
2018-12-05T13:24:07.481Z,56.30
2018-12-05T13:26:38.531Z,56.90
2018-12-05T13:29:09.669Z,56.80
2018-12-05T13:31:40.516Z,56.20
2018-12-05T13:34:11.641Z,55.90
2018-12-05T13:36:42.562Z,56.30
2018-12-05T13:39:14.320Z,56.00
2018-12-05T13:41:45.407Z,56.50
2018-12-05T13:44:16.846Z,55.70
2018-12-05T13:46:48.326Z,55.90
2018-12-05T13:49:19.323Z,56.00
2018-12-05T13:51:50.792Z,56.10
2018-12-05T13:54:22.025Z,56.40
2018-12-05T13:56:53.116Z,56.60
2018-12-05T13:59:24.191Z,56.60
2018-12-05T14:01:55.112Z,56.90
2018-12-05T14:04:26.441Z,56.90
2018-12-05T14:06:57.425Z,57.00
2018-12-05T14:09:28.533Z,57.00
2018-12-05T14:11:59.482Z,57.40
2018-12-05T14:14:30.650Z,57.70
2018-12-05T14:17:01.791Z,58.40
2018-12-05T14:19:32.884Z,58.50
2018-12-05T14:22:04.441Z,58.50
2018-12-05T14:24:35.562Z,59.00
2018-12-05T14:27:06.578Z,59.20
2018-12-05T14:29:37.862Z,59.40
2018-12-05T14:32:08.897Z,59.60
2018-12-05T14:34:40.007Z,59.30
2018-12-05T14:37:11.003Z,59.20
2018-12-05T14:39:42.037Z,59.30
2018-12-05T14:42:13.042Z,59.70
2018-12-05T14:44:44.503Z,59.50
2018-12-05T14:47:15.646Z,59.50
2018-12-05T14:49:47.379Z,59.60
2018-12-05T14:52:18.923Z,59.90
2018-12-05T14:54:49.974Z,59.70
2018-12-05T14:57:21.040Z,59.80
2018-12-05T14:59:53.547Z,60.20
2018-12-05T15:02:24.474Z,60.10
2018-12-05T15:04:55.716Z,59.80
2018-12-05T15:07:26.669Z,60.30
2018-12-05T15:09:57.612Z,60.50
2018-12-05T15:12:28.552Z,60.50
2018-12-05T15:14:59.787Z,60.50
2018-12-05T15:17:30.800Z,60.60
2018-12-05T15:20:01.882Z,60.20
2018-12-05T15:22:33.292Z,60.80
2018-12-05T15:25:04.271Z,61.20
2018-12-05T15:27:35.022Z,61.60
2018-12-05T15:30:06.007Z,61.30
2018-12-05T15:32:36.855Z,61.10
2018-12-05T15:35:07.837Z,61.40
2018-12-05T15:37:38.781Z,61.90
2018-12-05T15:40:09.812Z,61.80
2018-12-05T15:42:40.633Z,62.20
2018-12-05T15:45:11.542Z,61.50
2018-12-05T15:47:42.722Z,61.50
2018-12-05T15:50:13.772Z,61.60
2018-12-05T15:52:44.904Z,61.60
2018-12-05T15:55:15.987Z,61.80
2018-12-05T15:57:46.903Z,61.40
2018-12-05T16:00:17.837Z,61.10
2018-12-05T16:02:48.932Z,60.70
2018-12-05T16:05:20.162Z,61.00
2018-12-05T16:07:50.947Z,61.20
2018-12-05T16:10:21.797Z,61.40
2018-12-05T16:12:52.847Z,61.30
2018-12-05T16:15:23.782Z,61.70
2018-12-05T16:17:54.747Z,61.90
2018-12-05T16:20:25.879Z,62.30
2018-12-05T16:22:57.442Z,62.80
2018-12-05T16:25:28.558Z,62.60
2018-12-05T16:27:59.437Z,62.60
2018-12-05T16:30:30.448Z,63.20
2018-12-05T16:33:01.342Z,63.40
2018-12-05T16:35:32.209Z,63.20
2018-12-05T16:38:03.217Z,63.10
2018-12-05T16:40:34.290Z,63.60
2018-12-05T16:43:05.153Z,63.20
2018-12-05T16:45:36.153Z,63.10
2018-12-05T16:48:07.047Z,63.00
2018-12-05T16:50:38.108Z,63.00
2018-12-05T16:53:09.123Z,62.80
2018-12-05T16:55:40.450Z,63.10
2018-12-05T16:58:11.368Z,63.00
2018-12-05T17:00:42.433Z,63.00
2018-12-05T17:03:13.358Z,63.50
2018-12-05T17:05:44.257Z,64.20
2018-12-05T17:08:15.194Z,63.50
2018-12-05T17:10:46.172Z,63.70
2018-12-05T17:13:17.132Z,64.00
2018-12-05T17:15:48.140Z,63.90
2018-12-05T17:18:19.087Z,63.80
2018-12-05T17:20:50.176Z,63.80
2018-12-05T17:23:21.784Z,63.70
2018-12-05T17:25:52.790Z,63.30
2018-12-05T17:28:23.643Z,62.90
2018-12-05T17:30:54.583Z,62.70
2018-12-05T17:33:25.518Z,62.60
2018-12-05T17:35:56.539Z,63.10
2018-12-05T17:38:27.490Z,63.60
2018-12-05T17:40:58.413Z,64.00
2018-12-05T17:43:29.369Z,64.40
2018-12-05T17:46:00.368Z,64.50
2018-12-05T17:48:31.362Z,64.50
2018-12-05T17:51:02.513Z,63.80
2018-12-05T17:53:33.764Z,63.10
2018-12-05T17:56:04.769Z,63.10
2018-12-05T17:58:35.778Z,62.10
2018-12-05T18:01:06.739Z,63.10
2018-12-05T18:03:37.809Z,64.20
2018-12-05T18:06:09.328Z,64.10
2018-12-05T18:08:40.438Z,63.90
2018-12-05T18:11:11.616Z,65.00
2018-12-05T18:13:42.605Z,64.30
2018-12-05T18:16:13.846Z,64.30
2018-12-05T18:18:44.969Z,64.00
2018-12-05T18:21:16.358Z,63.60
2018-12-05T18:23:47.964Z,63.70
2018-12-05T18:26:19.034Z,64.00
2018-12-05T18:28:49.824Z,63.60
2018-12-05T18:31:21.248Z,63.60
2018-12-05T18:33:52.125Z,63.40
2018-12-05T18:36:23.399Z,64.10
2018-12-05T18:38:54.539Z,63.60
2018-12-05T18:41:25.663Z,63.70
2018-12-05T18:43:56.623Z,63.40
2018-12-05T18:46:27.768Z,63.50
2018-12-05T18:48:59.073Z,63.00
2018-12-05T18:51:30.112Z,62.70
2018-12-05T18:54:01.083Z,62.40
2018-12-05T18:56:32.089Z,62.20
2018-12-05T18:59:03.063Z,62.10
2018-12-05T19:01:34.328Z,62.10
2018-12-05T19:04:05.399Z,62.20
2018-12-05T19:06:36.728Z,62.40
2018-12-05T19:09:09.483Z,62.10
2018-12-05T19:11:42.567Z,62.30
2018-12-05T19:14:18.279Z,62.40
2018-12-05T19:16:49.384Z,62.20
2018-12-05T19:19:20.989Z,62.20
2018-12-05T19:21:52.098Z,62.30
2018-12-05T19:24:23.325Z,62.70
2018-12-05T19:26:54.512Z,63.00
2018-12-05T19:29:25.503Z,63.10
2018-12-05T19:31:56.524Z,62.50
2018-12-05T19:34:27.358Z,62.30
2018-12-05T19:36:58.496Z,62.00
2018-12-05T19:39:29.611Z,62.60
2018-12-05T19:42:00.673Z,62.80
2018-12-05T19:44:31.722Z,62.70
2018-12-05T19:47:05.413Z,63.50
2018-12-05T19:49:36.655Z,62.80
2018-12-05T19:52:07.989Z,63.00
2018-12-05T19:54:39.078Z,62.90
2018-12-05T19:57:10.778Z,62.40
2018-12-05T19:59:42.002Z,62.20
2018-12-05T20:02:13.037Z,62.60
2018-12-05T20:04:44.017Z,62.90
2018-12-05T20:07:16.588Z,63.20
2018-12-05T20:09:47.481Z,62.90
2018-12-05T20:12:18.494Z,62.80
2018-12-05T20:14:49.588Z,62.30
2018-12-05T20:17:20.574Z,61.60
2018-12-05T20:19:51.443Z,61.60
2018-12-05T20:22:22.413Z,61.60
2018-12-05T20:24:53.852Z,60.90
2018-12-05T20:27:24.787Z,61.30
2018-12-05T20:29:55.828Z,61.60
2018-12-05T20:32:26.777Z,61.30
2018-12-05T20:34:57.788Z,61.10
2018-12-05T20:37:28.903Z,61.60
2018-12-05T20:39:59.975Z,62.20
2018-12-05T20:42:30.917Z,62.80
2018-12-05T20:45:02.162Z,62.90
2018-12-05T20:47:33.399Z,62.80
2018-12-05T20:50:04.443Z,62.80
2018-12-05T20:52:36.069Z,62.30
2018-12-05T20:55:07.573Z,62.60
2018-12-05T20:57:39.053Z,62.40
2018-12-05T21:00:10.313Z,62.30
2018-12-05T21:02:42.407Z,61.30
2018-12-05T21:05:13.387Z,61.40
2018-12-05T21:07:44.354Z,61.40
2018-12-05T21:10:15.613Z,62.50
2018-12-05T21:12:46.769Z,61.70
2018-12-05T21:15:17.698Z,60.90
2018-12-05T21:17:48.755Z,61.80
2018-12-05T21:20:19.703Z,61.90
2018-12-05T21:22:50.649Z,61.20
2018-12-05T21:25:21.955Z,60.90
2018-12-05T21:27:52.893Z,61.10
2018-12-05T21:31:02.193Z,61.30
2018-12-05T21:33:35.385Z,61.00
2018-12-05T21:36:06.469Z,61.10
2018-12-05T21:38:37.379Z,61.90
2018-12-05T21:41:08.363Z,62.40
2018-12-05T21:43:39.411Z,62.30
2018-12-05T21:46:10.369Z,62.20
2018-12-05T21:48:42.242Z,62.00
2018-12-05T21:51:13.138Z,61.90
2018-12-05T21:53:44.129Z,62.30
2018-12-05T21:56:15.279Z,62.10
2018-12-05T21:58:46.603Z,62.00
2018-12-05T22:01:17.549Z,62.80
2018-12-05T22:03:48.853Z,62.80
2018-12-05T22:06:19.888Z,62.70
2018-12-05T22:08:50.914Z,63.50
2018-12-05T22:11:22.032Z,64.50
2018-12-05T22:13:53.152Z,65.00
2018-12-05T22:16:24.943Z,65.30
2018-12-05T22:18:55.939Z,66.20
2018-12-05T22:21:26.838Z,67.30
2018-12-05T22:26:07.945Z,67.30
2018-12-05T22:28:39.103Z,69.20
2018-12-05T22:31:10.104Z,70.10
2018-12-05T22:33:41.092Z,69.70
2018-12-05T22:36:11.948Z,70.30
2018-12-05T22:38:42.813Z,70.10
2018-12-05T22:41:13.928Z,71.20
2018-12-05T22:43:44.743Z,70.50
2018-12-05T22:46:15.632Z,71.00
2018-12-05T22:49:20.939Z,71.70
2018-12-05T22:51:51.952Z,72.10
2018-12-05T22:54:22.987Z,72.50
2018-12-05T22:57:04.368Z,73.40
2018-12-05T22:59:35.343Z,75.10
2018-12-05T23:02:06.433Z,75.50
2018-12-05T23:04:37.324Z,75.10
2018-12-05T23:07:08.713Z,74.80
2018-12-05T23:09:39.545Z,74.90
2018-12-05T23:12:10.545Z,76.10
2018-12-05T23:14:43.325Z,76.80
2018-12-05T23:17:14.463Z,78.40
2018-12-05T23:19:45.240Z,78.70
2018-12-05T23:22:16.113Z,80.00
2018-12-05T23:24:47.032Z,80.90
2018-12-05T23:27:17.987Z,80.90
2018-12-05T23:29:49.028Z,80.40
2018-12-05T23:32:19.968Z,80.40
2018-12-05T23:34:50.788Z,81.00
2018-12-05T23:37:21.773Z,80.20
2018-12-05T23:39:52.513Z,79.70
2018-12-05T23:42:23.293Z,80.10
2018-12-05T23:44:54.248Z,80.90
2018-12-05T23:47:27.207Z,79.70
2018-12-05T23:49:58.023Z,79.20
2018-12-05T23:52:28.928Z,78.60
2018-12-05T23:54:59.708Z,78.20
2018-12-05T23:57:30.729Z,78.30
